createdAt,value
2023-10-10T04:15:54.725Z,67.81
2023-10-10T04:16:50.806Z,67.71
2023-10-10T04:17:50.827Z,68.00
2023-10-10T04:18:50.678Z,68.10
2023-10-10T04:19:50.619Z,68.29
2023-10-10T04:20:50.705Z,68.29
2023-10-10T04:21:50.667Z,68.00
2023-10-10T04:22:51.438Z,68.48
2023-10-10T04:23:50.610Z,68.10
2023-10-10T04:24:50.582Z,68.00
2023-10-10T04:25:50.602Z,68.68
2023-10-10T04:26:50.623Z,68.68
2023-10-10T04:27:50.647Z,68.58
2023-10-10T04:28:50.562Z,68.80
2023-10-10T04:29:50.607Z,68.58
2023-10-10T04:30:50.578Z,68.99
2023-10-10T04:31:50.607Z,69.06
2023-10-10T04:32:50.613Z,68.90
2023-10-10T04:33:50.544Z,69.29
2023-10-10T04:34:50.546Z,69.19
2023-10-10T04:35:50.584Z,69.09
2023-10-10T04:36:50.530Z,68.90
2023-10-10T04:37:50.562Z,68.90
2023-10-10T04:38:50.539Z,69.09
2023-10-10T04:39:50.974Z,69.09
2023-10-10T04:40:50.533Z,68.99
2023-10-10T04:41:50.528Z,68.80
2023-10-10T04:42:50.537Z,68.99
2023-10-10T04:43:52.407Z,68.90
2023-10-10T04:44:51.545Z,68.71
2023-10-10T04:45:51.254Z,68.71
2023-10-10T04:46:50.540Z,69.38
2023-10-10T04:47:50.669Z,69.19
2023-10-10T04:48:50.516Z,68.80
2023-10-10T04:49:51.389Z,69.29
2023-10-10T04:50:50.524Z,69.48
2023-10-10T04:51:50.480Z,69.48
2023-10-10T04:52:50.488Z,69.48
2023-10-10T04:53:50.594Z,68.99
2023-10-10T04:54:50.504Z,68.99
2023-10-10T04:55:50.488Z,69.57
2023-10-10T04:56:50.459Z,68.99
2023-10-10T04:57:50.449Z,68.90
2023-10-10T04:58:50.515Z,68.99
2023-10-10T04:59:50.459Z,69.48
2023-10-10T05:00:50.461Z,68.80
2023-10-10T05:01:50.570Z,68.80
2023-10-10T05:02:50.520Z,69.19
2023-10-10T05:03:50.533Z,68.90
2023-10-10T05:04:50.445Z,69.13
2023-10-10T05:05:50.454Z,68.80
2023-10-10T05:06:50.445Z,68.74
2023-10-10T05:07:50.504Z,68.71
2023-10-10T05:08:50.449Z,69.03
2023-10-10T05:09:50.441Z,69.13
2023-10-10T05:10:50.421Z,69.13
2023-10-10T05:11:50.433Z,69.32
2023-10-10T05:12:50.434Z,69.13
2023-10-10T05:13:50.417Z,69.03
2023-10-10T05:14:50.449Z,68.84
2023-10-10T05:15:50.453Z,69.13
2023-10-10T05:16:50.440Z,69.23
2023-10-10T05:17:50.528Z,69.03
2023-10-10T05:18:50.939Z,69.13
2023-10-10T05:19:50.408Z,68.93
2023-10-10T05:20:50.396Z,68.93
2023-10-10T05:21:50.406Z,68.93
2023-10-10T05:22:50.420Z,68.93
2023-10-10T05:23:50.440Z,69.32
2023-10-10T05:24:50.392Z,68.93
2023-10-10T05:25:50.404Z,69.03
2023-10-10T05:26:50.368Z,68.84
2023-10-10T05:27:50.363Z,69.23
2023-10-10T05:28:50.433Z,69.32
2023-10-10T05:29:50.363Z,68.93
2023-10-10T05:30:50.367Z,69.03
2023-10-10T05:31:50.378Z,69.13
2023-10-10T05:32:50.480Z,69.03
2023-10-10T05:33:50.349Z,69.13
2023-10-10T05:34:50.368Z,68.93
2023-10-10T05:35:50.523Z,69.03
2023-10-10T05:36:50.336Z,69.03
2023-10-10T05:37:50.335Z,68.84
2023-10-10T05:38:50.321Z,68.74
2023-10-10T05:39:50.374Z,68.84
2023-10-10T05:40:50.483Z,68.93
2023-10-10T05:41:50.331Z,69.03
2023-10-10T05:42:50.346Z,68.65
2023-10-10T05:43:50.345Z,68.84
2023-10-10T05:44:50.362Z,68.65
2023-10-10T05:45:50.487Z,68.84
2023-10-10T05:46:50.347Z,68.26
2023-10-10T05:47:50.497Z,68.35
2023-10-10T05:48:50.541Z,68.35
2023-10-10T05:49:50.278Z,68.55
2023-10-10T05:50:50.335Z,68.35
2023-10-10T05:51:50.336Z,68.35
2023-10-10T05:52:50.369Z,68.55
2023-10-10T05:53:50.350Z,68.35
2023-10-10T05:54:50.708Z,68.45
2023-10-10T05:55:52.062Z,68.55
2023-10-10T05:56:50.935Z,68.45
2023-10-10T05:57:50.449Z,68.45
2023-10-10T05:58:50.305Z,68.45
2023-10-10T05:59:50.356Z,68.74
2023-10-10T06:00:50.866Z,68.93
2023-10-10T06:01:50.746Z,68.74
2023-10-10T06:02:50.750Z,68.93
2023-10-10T06:03:50.430Z,68.74
2023-10-10T06:04:50.372Z,68.35
2023-10-10T06:05:50.415Z,68.74
2023-10-10T06:06:50.634Z,68.65
2023-10-10T06:07:50.316Z,68.74
2023-10-10T06:08:50.368Z,68.07
2023-10-10T06:09:50.237Z,68.35
2023-10-10T06:10:50.228Z,68.55
2023-10-10T06:11:50.307Z,68.35
2023-10-10T06:12:50.265Z,68.55
2023-10-10T06:13:50.293Z,68.07
2023-10-10T06:14:50.315Z,68.45
2023-10-10T06:15:50.239Z,68.35
2023-10-10T06:16:50.261Z,68.55
2023-10-10T06:17:50.865Z,68.45
2023-10-10T06:18:50.199Z,68.35
2023-10-10T06:19:50.250Z,68.16
2023-10-10T06:21:50.232Z,68.35
2023-10-10T06:22:50.273Z,68.45
2023-10-10T06:23:50.206Z,68.07
2023-10-10T06:24:50.178Z,68.59
2023-10-10T06:25:50.257Z,68.39
2023-10-10T06:26:50.259Z,68.74
2023-10-10T06:27:51.443Z,68.39
2023-10-10T06:28:51.230Z,68.39
2023-10-10T06:29:50.192Z,68.39
2023-10-10T06:30:50.442Z,68.39
2023-10-10T06:31:50.167Z,68.39
2023-10-10T06:33:50.309Z,68.29
2023-10-10T06:34:50.808Z,68.29
2023-10-10T06:38:23.016Z,68.19
2023-10-10T06:39:22.927Z,68.39
2023-10-10T06:40:23.104Z,68.39
2023-10-10T06:41:22.897Z,68.10
2023-10-10T06:42:22.937Z,68.49
2023-10-10T06:43:22.992Z,68.19
2023-10-10T06:44:22.962Z,68.49
2023-10-10T06:45:23.066Z,68.49
2023-10-10T06:46:22.978Z,68.49
2023-10-10T06:47:22.899Z,68.49
2023-10-10T06:48:23.155Z,68.49
2023-10-10T06:49:22.957Z,68.19
2023-10-10T06:50:23.912Z,68.39
2023-10-10T06:51:22.981Z,68.29
2023-10-10T06:52:23.229Z,68.19
2023-10-10T06:53:23.130Z,68.68
2023-10-10T06:54:22.840Z,67.91
2023-10-10T06:55:22.885Z,68.59
2023-10-10T06:56:22.953Z,68.68
2023-10-10T06:57:22.861Z,68.49
2023-10-10T06:58:22.820Z,67.91
2023-10-10T06:59:22.884Z,68.19
2023-10-10T07:00:23.365Z,68.29
2023-10-10T07:01:23.389Z,68.01
2023-10-10T07:02:22.987Z,68.19
2023-10-10T07:03:22.856Z,68.01
2023-10-10T07:04:22.877Z,68.01
2023-10-10T07:05:22.838Z,68.10
2023-10-10T07:06:23.539Z,67.62
2023-10-10T07:07:22.856Z,67.81
2023-10-10T07:08:22.949Z,67.81
2023-10-10T07:09:22.812Z,68.01
2023-10-10T07:10:22.807Z,67.94
2023-10-10T07:11:22.853Z,67.81
2023-10-10T07:12:22.821Z,67.91
2023-10-10T07:13:22.820Z,68.01
2023-10-10T07:14:22.904Z,67.75
2023-10-10T07:15:22.978Z,68.01
2023-10-10T07:16:22.887Z,68.01
2023-10-10T07:17:23.853Z,67.65
2023-10-10T07:18:22.999Z,68.10
2023-10-10T07:19:22.851Z,67.81
2023-10-10T07:20:22.864Z,68.23
2023-10-10T07:21:23.845Z,68.19
2023-10-10T07:22:22.896Z,68.04
2023-10-10T07:23:22.969Z,68.19
2023-10-10T07:24:23.958Z,68.23
2023-10-10T07:25:22.820Z,68.13
2023-10-10T07:27:24.232Z,68.04
2023-10-10T07:28:23.069Z,68.23
2023-10-10T07:29:23.373Z,68.04
2023-10-10T07:30:22.767Z,68.04
2023-10-10T07:31:22.930Z,67.55
2023-10-10T07:32:23.375Z,67.75
2023-10-10T07:33:23.244Z,68.13
2023-10-10T07:34:24.345Z,67.85
2023-10-10T07:35:22.987Z,68.04
2023-10-10T07:36:23.745Z,68.52
2023-10-10T07:37:22.814Z,68.04
2023-10-10T07:38:24.273Z,68.04
2023-10-10T07:39:22.823Z,68.23
2023-10-10T07:40:22.763Z,67.85
2023-10-10T07:41:23.074Z,67.94
2023-10-10T07:42:23.343Z,67.85
2023-10-10T07:43:22.808Z,67.65
2023-10-10T07:44:22.910Z,67.55
2023-10-10T07:45:22.884Z,67.65
2023-10-10T07:46:22.847Z,67.75
2023-10-10T07:47:23.787Z,67.65
2023-10-10T07:48:23.959Z,67.85
2023-10-10T07:49:23.028Z,67.55
2023-10-10T07:50:23.032Z,67.65
2023-10-10T07:51:22.720Z,67.65
2023-10-10T07:52:22.685Z,67.65
2023-10-10T07:53:22.940Z,67.65
2023-10-10T07:54:22.985Z,67.65
2023-10-10T07:55:22.843Z,67.65
2023-10-10T07:56:22.781Z,67.55
2023-10-10T07:57:22.658Z,67.46
2023-10-10T07:58:24.963Z,67.55
2023-10-10T07:59:23.088Z,67.55
2023-10-10T08:00:22.884Z,67.85
2023-10-10T08:01:22.744Z,67.36
2023-10-10T08:02:22.736Z,67.85
2023-10-10T08:03:22.859Z,67.85
2023-10-10T08:04:22.866Z,67.65
2023-10-10T08:05:22.873Z,67.55
2023-10-10T08:06:23.594Z,67.75
2023-10-10T08:07:22.726Z,67.69
2023-10-10T08:08:22.694Z,67.75
2023-10-10T08:09:22.640Z,67.69
2023-10-10T08:10:22.693Z,67.69
2023-10-10T08:11:22.753Z,67.59
2023-10-10T08:12:22.754Z,67.78
2023-10-10T08:13:22.631Z,67.49
2023-10-10T08:14:22.665Z,67.49
2023-10-10T08:15:23.242Z,67.78
2023-10-10T08:16:22.888Z,67.30
2023-10-10T08:17:22.670Z,67.30
2023-10-10T08:18:22.952Z,67.30
2023-10-10T08:19:22.670Z,67.88
2023-10-10T08:20:22.893Z,67.88
2023-10-10T08:21:22.698Z,67.20
2023-10-10T08:22:22.723Z,67.49
2023-10-10T08:23:23.843Z,67.40
2023-10-10T08:24:22.598Z,67.11
2023-10-10T08:25:22.793Z,67.30
2023-10-10T08:26:23.056Z,67.11
2023-10-10T08:27:22.600Z,67.11
2023-10-10T08:28:22.643Z,67.11
2023-10-10T08:29:22.645Z,67.01
2023-10-10T08:30:22.657Z,67.49
2023-10-10T08:31:22.630Z,67.30
2023-10-10T08:32:24.953Z,67.40
2023-10-10T08:33:22.589Z,67.30
2023-10-10T08:34:23.609Z,67.30
2023-10-10T08:35:22.669Z,67.30
2023-10-10T08:36:22.582Z,67.01
2023-10-10T08:37:22.788Z,66.91
2023-10-10T08:38:22.832Z,67.40
2023-10-10T08:39:22.789Z,67.40
2023-10-10T08:40:22.693Z,67.30
2023-10-10T08:41:22.753Z,67.40
2023-10-10T08:42:25.370Z,67.20
2023-10-10T08:43:22.607Z,67.43
2023-10-10T08:44:22.890Z,67.20
2023-10-10T08:45:22.736Z,67.04
2023-10-10T08:46:22.553Z,66.91
2023-10-10T08:47:22.682Z,66.85
2023-10-10T08:48:22.648Z,67.43
2023-10-10T08:49:23.628Z,67.52
2023-10-10T08:50:22.867Z,67.24
2023-10-10T08:51:22.554Z,66.85
2023-10-10T08:53:22.737Z,66.85
2023-10-10T08:54:22.721Z,66.85
2023-10-10T08:55:22.635Z,67.52
2023-10-10T08:56:22.644Z,66.94
2023-10-10T08:57:22.741Z,67.43
2023-10-10T08:58:22.714Z,67.43
2023-10-10T08:59:22.821Z,67.14
2023-10-10T09:00:22.834Z,67.14
2023-10-10T09:01:22.707Z,67.24
2023-10-10T09:02:22.711Z,67.33
2023-10-10T09:03:22.767Z,67.14
2023-10-10T09:06:55.965Z,67.14
2023-10-10T09:07:56.093Z,67.33
2023-10-10T09:08:55.998Z,67.43
2023-10-10T09:09:55.944Z,67.24
2023-10-10T09:10:55.954Z,67.24
2023-10-10T09:11:56.083Z,67.33
2023-10-10T09:12:56.042Z,67.14
2023-10-10T09:13:55.955Z,67.33
2023-10-10T09:14:56.136Z,67.33
2023-10-10T09:15:56.301Z,67.24
2023-10-10T09:16:56.214Z,67.14
2023-10-10T09:17:56.066Z,67.14
2023-10-10T09:18:56.183Z,67.14
2023-10-10T09:19:55.987Z,67.14
2023-10-10T09:20:56.064Z,67.14
2023-10-10T09:21:56.379Z,67.33
2023-10-10T09:22:58.351Z,67.14
2023-10-10T09:23:56.088Z,66.94
2023-10-10T09:24:56.792Z,67.33
2023-10-10T09:25:56.074Z,67.14
2023-10-10T09:26:56.029Z,67.62
2023-10-10T09:27:56.029Z,67.14
2023-10-10T09:28:57.132Z,66.85
2023-10-10T09:29:58.913Z,67.14
2023-10-10T09:30:57.222Z,66.94
2023-10-10T09:31:55.959Z,67.24
2023-10-10T09:32:56.047Z,66.94
2023-10-10T09:33:56.118Z,66.94
2023-10-10T09:34:56.067Z,67.08
2023-10-10T09:35:56.642Z,67.04
2023-10-10T09:36:57.497Z,67.14
2023-10-10T09:37:56.196Z,67.17
2023-10-10T09:38:56.310Z,66.88
2023-10-10T09:39:56.013Z,67.08
2023-10-10T09:40:55.881Z,66.88
2023-10-10T09:41:55.920Z,66.78
2023-10-10T09:42:56.072Z,66.88
2023-10-10T09:43:56.197Z,66.88
2023-10-10T09:44:55.925Z,66.69
2023-10-10T09:45:55.877Z,66.69
2023-10-10T09:46:55.957Z,66.78
2023-10-10T09:47:55.983Z,66.50
2023-10-10T09:48:57.876Z,66.91
2023-10-10T09:49:55.921Z,66.53
2023-10-10T09:50:55.981Z,66.59
2023-10-10T09:51:56.709Z,66.63
2023-10-10T09:52:55.964Z,66.53
2023-10-10T09:53:56.044Z,67.01
2023-10-10T09:54:55.933Z,67.01
2023-10-10T09:55:55.881Z,66.63
2023-10-10T09:56:55.898Z,66.53
2023-10-10T09:57:56.036Z,67.01
2023-10-10T09:58:55.908Z,67.21
2023-10-10T09:59:55.937Z,67.01
2023-10-10T10:00:55.888Z,66.82
2023-10-10T10:01:55.895Z,66.82
2023-10-10T10:02:55.976Z,66.91
2023-10-10T10:03:55.877Z,66.91
2023-10-10T10:04:55.933Z,66.91
2023-10-10T10:05:55.976Z,66.72
2023-10-10T10:07:06.718Z,66.75
2023-10-10T10:07:55.887Z,66.95
2023-10-10T10:08:55.976Z,66.53
2023-10-10T10:09:55.977Z,66.37
2023-10-10T10:10:55.867Z,66.47
2023-10-10T10:11:55.878Z,66.56
2023-10-10T10:12:55.862Z,66.37
2023-10-10T10:14:04.967Z,66.56
2023-10-10T10:14:55.997Z,66.43
2023-10-10T10:15:55.955Z,66.14
2023-10-10T10:16:55.887Z,66.37
2023-10-10T10:17:56.319Z,65.98
2023-10-10T10:18:56.083Z,66.17
2023-10-10T10:30:10.439Z,66.37
2023-10-10T10:31:10.373Z,66.75
2023-10-10T10:33:11.303Z,66.66
2023-10-10T10:34:10.388Z,66.08
2023-10-10T10:35:10.777Z,65.40
2023-10-10T10:36:10.412Z,66.85
2023-10-10T10:37:10.322Z,66.66
2023-10-10T10:38:10.431Z,66.27
2023-10-10T10:39:13.686Z,66.27
2023-10-10T10:40:10.328Z,66.27
2023-10-10T10:41:10.709Z,66.27
2023-10-10T10:42:10.338Z,65.92
2023-10-10T10:43:10.341Z,66.56
2023-10-10T10:44:10.388Z,66.30
2023-10-10T10:45:10.358Z,66.02
2023-10-10T10:46:10.400Z,65.92
2023-10-10T10:47:10.307Z,66.11
2023-10-10T10:48:10.410Z,66.30
2023-10-10T10:49:10.384Z,66.02
2023-10-10T10:50:11.316Z,66.40
2023-10-10T10:51:10.300Z,66.02
2023-10-10T10:52:10.289Z,66.11
2023-10-10T10:53:10.285Z,66.72
2023-10-10T10:54:10.321Z,66.02
2023-10-10T10:55:10.438Z,66.14
2023-10-10T10:56:11.895Z,66.53
2023-10-10T10:57:10.445Z,66.53
2023-10-10T10:58:10.314Z,66.53
2023-10-10T10:59:10.353Z,66.14
2023-10-10T11:00:10.376Z,65.47
2023-10-10T11:01:10.377Z,65.66
2023-10-10T11:02:11.934Z,65.95
2023-10-10T11:03:10.421Z,66.14
2023-10-10T11:04:10.297Z,65.79
2023-10-10T11:05:10.429Z,66.17
2023-10-10T11:06:10.785Z,65.50
2023-10-10T11:07:10.370Z,66.37
2023-10-10T11:08:10.314Z,65.98
2023-10-10T11:09:11.933Z,65.89
2023-10-10T11:10:10.351Z,65.69
2023-10-10T11:11:10.772Z,65.59
2023-10-10T11:12:10.580Z,65.98
2023-10-10T11:13:10.346Z,66.08
2023-10-10T11:14:10.318Z,66.17
2023-10-10T11:15:10.452Z,65.72
2023-10-10T11:16:10.388Z,65.82
2023-10-10T11:17:10.454Z,65.72
2023-10-10T11:18:10.460Z,65.43
2023-10-10T11:19:10.382Z,65.43
2023-10-10T11:20:10.433Z,66.02
2023-10-10T11:21:10.284Z,65.92
2023-10-10T11:22:10.288Z,65.85
2023-10-10T11:23:10.298Z,65.66
2023-10-10T11:24:10.306Z,66.14
2023-10-10T11:25:10.299Z,65.85
2023-10-10T11:26:10.296Z,66.05
2023-10-10T11:27:10.320Z,65.30
2023-10-10T11:28:10.313Z,65.37
2023-10-10T11:29:10.403Z,65.40
2023-10-10T11:30:10.898Z,65.50
2023-10-10T11:31:10.489Z,65.30
2023-10-10T11:32:10.300Z,65.30
2023-10-10T11:33:10.718Z,64.95
2023-10-10T11:34:10.431Z,64.95
2023-10-10T11:35:10.299Z,65.05
2023-10-10T11:36:10.370Z,64.65
2023-10-10T11:37:10.310Z,65.14
2023-10-10T11:38:10.702Z,64.85
2023-10-10T11:39:10.386Z,65.24
2023-10-10T11:40:10.369Z,65.27
2023-10-10T11:41:10.412Z,64.75
2023-10-10T11:42:10.394Z,65.08
2023-10-10T11:43:10.413Z,64.65
2023-10-10T11:44:10.321Z,63.98
2023-10-10T11:45:11.404Z,64.30
2023-10-10T11:46:10.491Z,64.59
2023-10-10T11:47:10.341Z,64.11
2023-10-10T11:48:10.600Z,64.11
2023-10-10T11:49:10.325Z,64.11
2023-10-10T11:50:10.600Z,63.91
2023-10-10T11:51:11.484Z,64.72
2023-10-10T11:52:10.347Z,64.53
2023-10-10T11:53:10.513Z,63.84
2023-10-10T11:54:10.377Z,63.65
2023-10-10T11:55:10.325Z,64.14
2023-10-10T11:56:10.395Z,64.14
2023-10-10T11:57:10.329Z,63.49
2023-10-10T11:58:11.155Z,63.97
2023-10-10T11:59:10.475Z,63.20
2023-10-10T12:00:24.619Z,64.07
2023-10-10T12:01:10.386Z,64.07
2023-10-10T12:02:10.370Z,63.32
2023-10-10T12:03:11.124Z,63.32
2023-10-10T12:04:10.419Z,62.74
2023-10-10T12:05:10.345Z,62.64
2023-10-10T12:06:10.484Z,62.54
2023-10-10T12:07:10.364Z,62.96
2023-10-10T12:08:11.644Z,62.57
2023-10-10T12:09:10.421Z,62.57
2023-10-10T12:10:10.383Z,62.87
2023-10-10T12:11:10.384Z,63.06
2023-10-10T12:12:10.397Z,62.02
2023-10-10T12:13:10.462Z,62.41
2023-10-10T12:14:10.535Z,62.22
2023-10-10T12:15:13.438Z,62.41
2023-10-10T12:16:10.423Z,62.15
2023-10-10T12:17:10.476Z,61.96
2023-10-10T12:18:10.568Z,61.86
2023-10-10T12:19:10.733Z,61.66
2023-10-10T12:20:10.439Z,61.66
2023-10-10T12:21:10.379Z,61.40
2023-10-10T12:22:10.411Z,61.60
2023-10-10T12:23:10.432Z,61.79
2023-10-10T12:24:10.456Z,61.50
2023-10-10T12:25:10.395Z,61.30
2023-10-10T12:26:10.414Z,61.14
2023-10-10T12:27:10.585Z,61.24
2023-10-10T12:28:10.402Z,60.94
2023-10-10T12:29:10.435Z,60.78
2023-10-10T12:30:10.412Z,60.68
2023-10-10T12:31:10.450Z,60.78
2023-10-10T12:32:10.424Z,60.78
2023-10-10T12:33:10.602Z,60.19
2023-10-10T12:34:10.555Z,60.32
2023-10-10T12:35:10.641Z,60.03
2023-10-10T12:36:10.656Z,60.32
2023-10-10T12:37:10.493Z,60.03
2023-10-10T12:38:11.140Z,59.74
2023-10-10T12:39:10.461Z,59.96
2023-10-10T12:40:10.539Z,59.77
2023-10-10T12:41:11.465Z,59.28
2023-10-10T12:42:10.578Z,59.67
2023-10-10T12:43:10.580Z,59.67
2023-10-10T12:44:10.468Z,59.20
2023-10-10T12:45:10.504Z,59.11
2023-10-10T12:46:10.547Z,59.01
2023-10-10T12:47:11.506Z,58.91
2023-10-10T12:48:10.556Z,58.81
2023-10-10T12:49:10.481Z,58.75
2023-10-10T12:50:10.510Z,58.55
2023-10-10T12:51:10.847Z,58.65
2023-10-10T12:52:10.501Z,58.68
2023-10-10T12:53:10.549Z,58.58
2023-10-10T12:54:10.517Z,58.28
2023-10-10T12:57:43.713Z,57.63
2023-10-10T12:58:43.738Z,57.43
2023-10-10T12:59:43.748Z,57.36
2023-10-10T13:00:43.766Z,57.66
2023-10-10T13:01:43.720Z,57.36
2023-10-10T13:02:43.949Z,57.36
2023-10-10T13:03:43.905Z,56.87
2023-10-10T13:04:43.743Z,57.10
2023-10-10T13:05:43.736Z,57.29
2023-10-10T13:06:43.719Z,57.29
2023-10-10T13:07:43.746Z,56.81
2023-10-10T13:08:43.832Z,56.90
2023-10-10T13:09:43.843Z,57.00
2023-10-10T13:10:43.818Z,56.34
2023-10-10T13:11:43.822Z,56.54
2023-10-10T13:12:43.927Z,56.44
2023-10-10T13:13:43.790Z,56.54
2023-10-10T13:14:43.813Z,56.34
2023-10-10T13:15:43.811Z,55.66
2023-10-10T13:16:44.800Z,56.44
2023-10-10T13:17:43.859Z,56.17
2023-10-10T13:18:43.862Z,55.68
2023-10-10T13:19:43.873Z,55.68
2023-10-10T13:20:44.068Z,56.67
2023-10-10T13:22:43.834Z,55.88
2023-10-10T13:23:43.920Z,55.81
2023-10-10T13:24:43.975Z,55.41
2023-10-10T13:26:04.888Z,55.71
2023-10-10T13:26:43.989Z,55.71
2023-10-10T13:27:43.891Z,55.24
2023-10-10T13:28:43.919Z,55.51
2023-10-10T13:29:44.028Z,55.12
2023-10-10T13:30:43.996Z,54.95
2023-10-10T13:31:43.908Z,55.15
2023-10-10T13:32:44.192Z,55.44
2023-10-10T13:33:43.933Z,55.05
2023-10-10T13:34:43.909Z,54.66
2023-10-10T13:35:43.951Z,54.85
2023-10-10T13:36:43.913Z,54.66
2023-10-10T13:37:43.924Z,54.88
2023-10-10T13:38:43.970Z,55.08
2023-10-10T13:39:44.022Z,54.98
2023-10-10T13:40:43.946Z,54.78
2023-10-10T13:41:43.997Z,54.49
2023-10-10T13:42:44.169Z,54.49
2023-10-10T13:43:44.153Z,54.39
2023-10-10T13:44:44.237Z,54.10
2023-10-10T13:45:45.485Z,54.00
2023-10-10T13:46:44.062Z,54.19
2023-10-10T13:47:44.164Z,54.02
2023-10-10T13:48:44.171Z,54.12
2023-10-10T13:49:44.035Z,53.53
2023-10-10T13:50:44.046Z,54.39
2023-10-10T13:51:44.112Z,53.90
2023-10-10T13:52:44.051Z,53.73
2023-10-10T13:53:44.060Z,54.00
2023-10-10T13:54:44.027Z,53.63
2023-10-10T13:55:44.030Z,53.83
2023-10-10T13:56:44.127Z,53.70
2023-10-10T13:57:44.058Z,53.83
2023-10-10T13:58:44.096Z,53.44
2023-10-10T13:59:44.112Z,53.53
2023-10-10T14:00:44.094Z,53.23
2023-10-10T14:01:44.189Z,53.53
2023-10-10T14:02:44.197Z,53.63
2023-10-10T14:03:44.253Z,53.63
2023-10-10T14:04:44.191Z,53.44
2023-10-10T14:05:44.112Z,53.04
2023-10-10T14:06:44.092Z,53.53
2023-10-10T14:07:44.122Z,53.53
2023-10-10T14:08:44.200Z,53.50
2023-10-10T14:10:01.684Z,53.41
2023-10-10T14:10:44.147Z,53.67
2023-10-10T14:11:44.158Z,53.85
2023-10-10T14:12:44.157Z,54.04
2023-10-10T14:13:44.180Z,53.85
2023-10-10T14:14:44.167Z,53.55
2023-10-10T14:15:44.158Z,53.82
2023-10-10T14:16:44.249Z,54.11
2023-10-10T14:17:44.269Z,53.82
2023-10-10T14:18:44.377Z,54.28
2023-10-10T14:19:44.181Z,54.65
2023-10-10T14:20:44.237Z,54.85
2023-10-10T14:21:44.186Z,55.11
2023-10-10T14:22:55.166Z,54.99
2023-10-10T14:23:44.319Z,55.06
2023-10-10T14:24:44.201Z,55.26
2023-10-10T14:25:44.195Z,55.42
2023-10-10T14:26:44.237Z,55.03
2023-10-10T14:27:44.218Z,55.69
2023-10-10T14:28:44.222Z,56.45
2023-10-10T14:29:44.292Z,55.57
2023-10-10T14:30:44.249Z,56.64
2023-10-10T14:31:44.404Z,56.02
2023-10-10T14:32:44.347Z,55.63
2023-10-10T14:33:44.356Z,56.48
2023-10-10T14:34:44.220Z,56.10
2023-10-10T14:35:44.315Z,56.46
2023-10-10T14:36:44.228Z,56.65
2023-10-10T14:37:58.501Z,56.62
2023-10-10T14:38:44.264Z,56.52
2023-10-10T14:39:44.242Z,56.52
2023-10-10T14:40:44.242Z,56.40
2023-10-10T14:41:44.304Z,56.79
2023-10-10T14:42:44.292Z,56.67
2023-10-10T14:43:44.257Z,56.96
2023-10-10T14:44:44.294Z,56.96
2023-10-10T14:45:44.284Z,57.22
2023-10-10T14:46:44.364Z,57.03
2023-10-10T14:47:44.351Z,57.42
2023-10-10T14:48:44.262Z,57.49
2023-10-10T14:49:44.271Z,57.10
2023-10-10T14:50:44.362Z,57.26
2023-10-10T14:51:44.278Z,57.46
2023-10-10T14:52:44.287Z,57.56
2023-10-10T14:53:44.281Z,58.23
2023-10-10T14:54:44.285Z,58.50
2023-10-10T14:55:44.251Z,58.21
2023-10-10T14:56:44.383Z,58.11
2023-10-10T14:57:44.268Z,58.21
2023-10-10T14:58:44.255Z,58.18
2023-10-10T14:59:44.355Z,58.28
2023-10-10T15:00:44.298Z,58.47
2023-10-10T15:01:44.377Z,58.67
2023-10-10T15:02:44.377Z,58.67
2023-10-10T15:03:44.341Z,58.44
2023-10-10T15:04:44.305Z,58.54
2023-10-10T15:05:44.335Z,58.54
2023-10-10T15:06:44.286Z,58.34
2023-10-10T15:07:44.996Z,58.70
2023-10-10T15:08:44.333Z,58.41
2023-10-10T15:09:44.284Z,59.00
2023-10-10T15:10:44.345Z,59.00
2023-10-10T15:11:44.322Z,59.00
2023-10-10T15:12:44.266Z,59.28
2023-10-10T15:13:44.277Z,59.28
2023-10-10T15:14:44.354Z,59.19
2023-10-10T15:15:44.283Z,58.77
2023-10-10T15:16:44.295Z,59.06
2023-10-10T15:17:44.420Z,59.06
2023-10-10T15:18:44.362Z,59.74
2023-10-10T15:19:44.303Z,59.26
2023-10-10T15:20:44.309Z,59.36
2023-10-10T15:21:44.269Z,59.55
2023-10-10T15:22:44.332Z,59.55
2023-10-10T15:25:16.869Z,59.81
2023-10-10T15:26:16.862Z,59.71
2023-10-10T15:27:16.830Z,59.23
2023-10-10T15:28:19.377Z,59.71
2023-10-10T15:29:17.087Z,59.81
2023-10-10T15:30:16.838Z,60.00
2023-10-10T15:31:16.860Z,59.71
2023-10-10T15:32:16.848Z,59.59
2023-10-10T15:33:16.984Z,59.59
2023-10-10T15:34:16.864Z,60.27
2023-10-10T15:35:16.862Z,60.07
2023-10-10T15:36:16.875Z,60.17
2023-10-10T15:37:16.892Z,60.27
2023-10-10T15:38:16.871Z,60.27
2023-10-10T15:39:17.105Z,60.17
2023-10-10T15:40:16.872Z,60.27
2023-10-10T15:41:16.860Z,60.36
2023-10-10T15:42:16.830Z,60.04
2023-10-10T15:43:31.716Z,60.62
2023-10-10T15:44:17.171Z,60.72
2023-10-10T15:45:16.830Z,60.43
2023-10-10T15:46:16.875Z,60.52
2023-10-10T15:47:16.855Z,60.43
2023-10-10T15:48:16.915Z,60.62
2023-10-10T15:49:35.239Z,60.40
2023-10-10T15:50:16.878Z,60.72
2023-10-10T15:51:17.032Z,60.72
2023-10-10T15:52:16.836Z,60.59
2023-10-10T15:53:16.873Z,60.30
2023-10-10T15:54:16.857Z,60.59
2023-10-10T15:55:16.846Z,60.88
2023-10-10T15:56:16.872Z,60.59
2023-10-10T15:57:16.819Z,60.88
2023-10-10T15:58:16.918Z,60.88
2023-10-10T15:59:17.001Z,60.98
2023-10-10T16:00:16.927Z,60.78
2023-10-10T16:01:16.876Z,60.98
2023-10-10T16:02:16.856Z,60.98
2023-10-10T16:03:16.937Z,60.88
2023-10-10T16:04:16.866Z,61.33
2023-10-10T16:05:16.827Z,61.15
2023-10-10T16:06:16.842Z,61.24
2023-10-10T16:07:16.851Z,61.33
2023-10-10T16:08:16.807Z,61.15
2023-10-10T16:09:17.042Z,61.05
2023-10-10T16:10:16.842Z,61.24
2023-10-10T16:11:16.821Z,61.15
2023-10-10T16:12:16.820Z,60.85
2023-10-10T16:13:16.793Z,61.43
2023-10-10T16:14:16.820Z,61.33
2023-10-10T16:15:30.292Z,61.43
2023-10-10T16:16:16.875Z,61.40
2023-10-10T16:17:17.265Z,61.79
2023-10-10T16:29:21.057Z,61.21
2023-10-10T16:30:20.956Z,61.18
2023-10-10T16:31:20.938Z,61.21
2023-10-10T16:32:26.117Z,61.08
2023-10-10T16:33:20.945Z,61.18
2023-10-10T16:34:20.893Z,61.47
2023-10-10T16:35:20.888Z,61.18
2023-10-10T16:36:20.876Z,61.57
2023-10-10T16:37:20.878Z,61.76
2023-10-10T16:38:20.936Z,61.57
2023-10-10T16:39:20.868Z,61.47
2023-10-10T16:40:20.896Z,61.57
2023-10-10T16:41:20.865Z,62.15
2023-10-10T16:42:21.163Z,61.95
2023-10-10T16:43:20.925Z,61.76
2023-10-10T16:44:20.871Z,61.66
2023-10-10T16:45:20.941Z,61.66
2023-10-10T16:46:20.900Z,61.95
2023-10-10T16:47:20.859Z,62.02
2023-10-10T16:48:21.001Z,61.83
2023-10-10T16:49:20.835Z,61.76
2023-10-10T16:50:20.896Z,61.73
2023-10-10T16:51:20.856Z,62.40
2023-10-10T16:52:20.870Z,62.60
2023-10-10T16:53:20.854Z,62.21
2023-10-10T16:54:20.862Z,62.50
2023-10-10T16:55:20.826Z,62.40
2023-10-10T16:56:20.833Z,62.21
2023-10-10T16:57:20.838Z,62.31
2023-10-10T16:58:22.750Z,62.40
2023-10-10T16:59:20.852Z,62.12
2023-10-10T17:00:20.812Z,62.40
2023-10-10T17:01:20.912Z,62.40
2023-10-10T17:02:20.867Z,62.21
2023-10-10T17:03:20.972Z,62.31
2023-10-10T17:04:20.944Z,62.21
2023-10-10T17:05:20.835Z,62.50
2023-10-10T17:06:20.803Z,62.60
2023-10-10T17:07:20.790Z,62.79
2023-10-10T17:08:20.825Z,61.73
2023-10-10T17:09:20.802Z,62.12
2023-10-10T17:10:20.815Z,62.21
2023-10-10T17:11:20.803Z,62.12
2023-10-10T17:12:20.775Z,62.18
2023-10-10T17:13:20.844Z,62.12
2023-10-10T17:14:20.777Z,61.99
2023-10-10T17:15:20.797Z,62.18
2023-10-10T17:16:22.271Z,62.28
2023-10-10T17:17:20.796Z,62.86
2023-10-10T17:18:20.862Z,62.76
2023-10-10T17:19:20.851Z,62.76
2023-10-10T17:20:20.777Z,62.28
2023-10-10T17:21:20.779Z,62.28
2023-10-10T17:22:20.855Z,62.08
2023-10-10T17:23:20.768Z,62.28
2023-10-10T17:24:20.790Z,62.28
2023-10-10T17:25:20.750Z,62.28
2023-10-10T17:26:20.763Z,62.57
2023-10-10T17:27:20.763Z,62.28
2023-10-10T17:28:20.794Z,62.76
2023-10-10T17:29:20.987Z,62.76
2023-10-10T17:30:20.747Z,62.86
2023-10-10T17:31:20.879Z,62.76
2023-10-10T17:32:20.766Z,62.95
2023-10-10T17:33:20.805Z,62.95
2023-10-10T17:34:20.742Z,62.76
2023-10-10T17:35:20.739Z,62.76
2023-10-10T17:36:20.725Z,62.76
2023-10-10T17:37:20.752Z,62.66
2023-10-10T17:38:20.740Z,63.15
2023-10-10T17:39:20.832Z,63.15
2023-10-10T17:40:20.728Z,62.76
2023-10-10T17:41:20.746Z,62.86
2023-10-10T17:42:20.724Z,62.86
2023-10-10T17:43:22.326Z,63.05
2023-10-10T17:44:20.955Z,62.76